Latest Coastal Weather Observations for Geraldton Airport

IDW60701

Issued at 1:33 am WST Thursday 3 September 2026 (issued every 10 minutes, with the page automatically refreshed every 10 minutes)

About coastal observations | Map of coastal stations | Coastal observations for WA | Marine services | Other Formats
Station Details ID: 008315 Name: GERALDTON AIRPORT Lat: -28.80 Lon: 114.70 Height: 29.7 m
Data from the previous 72 hours. | See also: Recent months at Geraldton Airport
Date/Time
WST
Wind Sea
Height
m
Swell Vis
km
Cloud Weather Temp
°C
Press
MSL
hPa
Rain since
9am
mm
Dir  Spd
kts
Gust
kts
Height
m
Period
s
Dir
03/01:30am NNE 6 8 - - - - 10 Clear - 7.9 1021.7 0.0
03/01:00am NNE 7 7 - - - - 10 - - 8.1 1021.8 0.0
03/12:30am NNE 7 8 - - - - 10 - - 8.4 1021.9 0.0
03/12:00am NE 3 5 - - - - 10 - - 8.4 1022.1 0.0
 
Date/Time
WST
Wind Sea
Height
m
Swell Vis
km
Cloud Weather Temp
°C
Press
MSL
hPa
Rain since
9am
mm
Dir  Spd
kts
Gust
kts
Height
m
Period
s
Dir
02/11:30pm ENE 3 4 - - - - 10 - - 9.9 1022.2 0.0
02/11:00pm ENE 4 4 - - - - 10 - - 9.7 1022.4 0.0
02/10:30pm E 3 4 - - - - 10 - - 10.1 1022.7 0.0
02/10:00pm S 4 6 - - - - 10 Partly cloudy - 11.4 1022.8 0.0
02/09:30pm ENE 3 4 - - - - 10 Cloudy - 12.3 1022.9 0.0
02/09:00pm CALM 0 0 - - - - 10 Cloudy - 13.4 1022.9 0.0
02/08:30pm CALM 0 0 - - - - 10 Cloudy - 13.1 1022.9 0.0
02/08:00pm ESE 1 3 - - - - 10 Cloudy - 13.3 1022.8 0.0
02/07:30pm ESE 4 5 - - - - 10 Cloudy - 12.8 1022.6 0.0
02/07:00pm S 5 7 - - - - 10 - - 13.0 1022.4 0.0
02/06:30pm S 6 7 - - - - 10 - - 13.3 1022.3 0.0
02/06:00pm S 6 7 - - - - 10 Mostly clear - 13.8 1022.2 0.0
02/05:30pm S 6 7 - - - - 10 - - 14.7 1022.0 0.0
02/05:00pm S 9 11 - - - - 10 Mostly clear - 16.9 1021.9 0.0
02/04:30pm SSW 12 17 - - - - 10 Partly cloudy - 17.7 1021.8 0.0
02/04:00pm SSW 12 17 - - - - 10 Cloudy - 18.0 1021.6 0.0
02/03:30pm SSW 10 17 - - - - 10 Partly cloudy - 19.0 1021.7 0.0
02/03:00pm SSW 11 15 - - - - 10 Partly cloudy - 17.6 1021.9 0.0
02/02:30pm SSW 11 15 - - - - 10 Mostly clear - 18.4 1022.1 0.0
02/02:00pm S 11 15 - - - - 10 Partly cloudy - 18.4 1022.2 0.0
02/01:30pm S 9 13 - - - - 10 Partly cloudy - 17.7 1022.5 0.0
02/01:00pm SSW 11 16 - - - - 10 Partly cloudy - 18.7 1022.7 0.0
02/12:30pm S 8 11 - - - - 10 Partly cloudy - 19.0 1023.2 0.0
02/12:00pm SSW 10 15 - - - - 10 Cloudy - 18.0 1023.6 0.0
02/11:30am SW 9 13 - - - - 10 Partly cloudy - 18.9 1023.9 0.0
02/11:00am SSW 6 8 - - - - 10 Partly cloudy - 17.3 1024.0 0.0
02/10:30am WSW 4 8 - - - - 10 Partly cloudy - 16.8 1024.1 0.0
02/10:00am SE 5 7 - - - - 10 Partly cloudy - 16.9 1024.3 0.0
02/09:30am NE 4 6 - - - - 10 Cloudy - 16.4 1024.4 0.0
02/09:00am NE 4 5 - - - - 10 Mostly cloudy - 15.0 1024.4 0.2
02/08:30am NNE 5 6 - - - - 10 Partly cloudy - 14.0 1024.1 0.2
02/08:00am NE 5 6 - - - - 10 Partly cloudy - 13.1 1023.9 0.2
02/07:30am NNE 8 10 - - - - 10 Partly cloudy - 12.1 1023.5 0.2
02/07:00am NNE 7 9 - - - - 10 Partly cloudy - 11.2 1023.3 0.2
02/06:30am NNE 6 8 - - - - 10 Cloudy - 11.6 1023.0 0.2
02/06:00am NNE 5 6 - - - - 10 Cloudy - 11.7 1022.9 0.2
02/05:30am NNE 5 8 - - - - 10 Cloudy - 11.7 1022.9 0.2
02/05:00am NE 5 6 - - - - 10 Cloudy - 11.9 1022.7 0.2
02/04:30am ENE 4 6 - - - - 10 Cloudy - 11.8 1022.7 0.2
02/04:00am NNE 5 6 - - - - 10 Cloudy - 11.6 1022.7 0.2
02/03:30am NE 4 5 - - - - 10 Cloudy - 11.7 1022.7 0.2
02/03:00am NNE 5 6 - - - - 10 Cloudy - 11.2 1022.7 0.2
02/02:30am NNE 5 6 - - - - 10 Cloudy - 11.0 1022.9 0.2
02/02:00am NNE 6 6 - - - - 10 Partly cloudy - 10.0 1023.0 0.2
02/01:30am NE 5 6 - - - - 10 - - 9.5 1023.1 0.2
02/01:00am NE 3 4 - - - - 10 - - 9.6 1023.4 0.2
02/12:30am CALM 0 0 - - - - 10 - - 10.4 1023.6 0.2
02/12:00am SE 3 4 - - - - 10 - - 11.0 1023.7 0.2
 
Date/Time
WST
Wind Sea
Height
m
Swell Vis
km
Cloud Weather Temp
°C
Press
MSL
hPa
Rain since
9am
mm
Dir  Spd
kts
Gust
kts
Height
m
Period
s
Dir
01/11:30pm SSE 1 4 - - - - 10 - - 11.3 1023.8 0.2
01/11:00pm SSE 3 4 - - - - 10 - - 11.4 1023.9 0.2
01/10:30pm ENE 4 4 - - - - 10 - - 12.3 1024.1 0.2
01/10:00pm E 4 5 - - - - 10 - - 12.0 1024.1 0.2
01/09:30pm SSE 3 4 - - - - 10 - - 13.2 1024.1 0.2
01/09:00pm ESE 3 5 - - - - 10 Mostly clear - 13.3 1024.0 0.2
01/08:30pm ESE 5 6 - - - - 10 - - 14.0 1023.9 0.2
01/08:00pm SSE 3 3 - - - - 10 - - 14.3 1023.8 0.2
01/07:30pm SE 5 6 - - - - 10 - - 14.7 1023.5 0.2
01/07:00pm SSE 6 7 - - - - 10 - - 15.0 1023.2 0.2
01/06:30pm S 5 6 - - - - 10 - - 16.0 1023.0 0.2
01/06:00pm S 7 10 - - - - 10 - - 16.9 1022.8 0.2
01/05:30pm S 12 15 - - - - 10 - - 17.9 1022.5 0.2
01/05:00pm S 11 15 - - - - 10 - - 18.6 1022.5 0.2
01/04:30pm S 13 16 - - - - 10 - - 19.2 1022.3 0.2
01/04:00pm S 11 14 - - - - 10 - - 19.7 1022.2 0.2
01/03:30pm SSE 11 14 - - - - 10 - - 20.1 1022.0 0.2
01/03:00pm S 11 14 - - - - 10 - - 20.5 1022.2 0.2
01/02:30pm S 12 16 - - - - 10 - - 20.5 1022.2 0.2
01/02:00pm S 12 16 - - - - 10 - - 19.9 1022.4 0.2
01/01:30pm S 11 14 - - - - 10 - - 20.1 1022.7 0.2
01/01:00pm S 9 13 - - - - 10 Partly cloudy - 20.2 1022.9 0.2
01/12:30pm S 9 14 - - - - 10 Partly cloudy - 19.8 1023.1 0.0
01/12:00pm SSE 11 14 - - - - 10 Cloudy - 19.6 1023.4 0.0
01/11:30am SE 9 13 - - - - 10 Cloudy - 20.2 1023.8 0.0
01/11:00am SSE 11 14 - - - - 10 Cloudy - 19.5 1023.8 0.0
01/10:36am SSE 12 15 - - - - 10 Cloudy - 18.2 1023.8 0.0
01/10:30am SE 12 15 - - - - 10 Cloudy - 17.8 1023.9 0.0
01/10:00am SE 13 16 - - - - 10 Mostly clear - 16.9 1023.9 0.0
01/09:30am SSE 12 15 - - - - 10 Partly cloudy - 16.0 1024.0 0.0
01/09:00am SSE 14 18 - - - - 10 Cloudy Recent precip. 16.2 1023.8 1.8
01/08:50am SE 13 17 - - - - 10 Cloudy - 15.9 1023.9 1.8
01/08:30am S 8 11 - - - - 2 Partly cloudy - 15.4 1023.8 1.8
01/08:11am NE 4 5 - - - - 5 Mostly clear - 15.1 1023.5 1.8
01/08:10am NE 4 5 - - - - 9 Mostly clear - 15.0 1023.5 1.8
01/08:04am NE 3 5 - - - - 10 Partly cloudy - 15.0 1023.5 1.8
01/08:00am NE 3 4 - - - - 10 Cloudy - 14.9 1023.4 1.8
01/07:51am NE 4 5 - - - - 6 Cloudy - 14.4 1023.3 1.8
01/07:30am NNE 4 6 - - - - 10 Cloudy - 13.7 1023.0 1.8
01/07:00am N 6 7 - - - - 10 Partly cloudy - 12.9 1022.7 1.8
01/06:39am NNE 6 8 - - - - 10 Mostly clear - 13.0 1022.7 1.8
01/06:30am NE 6 7 - - - - 7 Mostly clear - 13.2 1022.7 1.8
01/06:18am NE 6 7 - - - - 7 Mostly clear - 13.0 1022.6 1.8
01/06:05am NNE 6 7 - - - - 6 Partly cloudy - 13.0 1022.6 1.6
01/06:02am NNE 6 8 - - - - 10 Partly cloudy - 13.0 1022.6 1.6
01/06:00am NNE 7 9 - - - - 10 Cloudy Showers 13.0 1022.6 1.6
01/05:33am NE 6 7 - - - - 3 Partly cloudy - 12.4 1022.5 1.0
01/05:30am ENE 5 7 - - - - 3 Partly cloudy - 12.3 1022.5 0.8
01/05:18am NNE 6 7 - - - - 6 Partly cloudy - 12.4 1022.4 0.2
01/05:00am NNE 8 9 - - - - 10 Partly cloudy - 12.3 1022.1 0.0
01/04:30am NNE 8 10 - - - - 10 Cloudy - 12.2 1022.0 0.0
01/04:00am NNE 8 10 - - - - 10 Partly cloudy - 12.0 1022.0 0.0
01/03:30am NNE 8 9 - - - - 10 - - 11.6 1022.0 0.0
01/03:00am NNE 9 11 - - - - 10 - - 12.0 1022.0 0.0
01/02:30am NNE 7 8 - - - - 10 - - 12.0 1022.0 0.0
01/02:00am NNE 6 8 - - - - 10 - - 12.1 1022.3 0.0
01/01:30am NNE 7 8 - - - - 10 Cloudy - 12.9 1022.4 0.0
01/01:00am NNE 7 7 - - - - 10 Mostly clear - 12.8 1022.6 0.0
01/12:30am NNE 7 8 - - - - 10 - - 12.7 1022.7 0.0
01/12:00am NNE 7 7 - - - - 10 - - 12.9 1022.8 0.0
 
Date/Time
WST
Wind Sea
Height
m
Swell Vis
km
Cloud Weather Temp
°C
Press
MSL
hPa
Rain since
9am
mm
Dir  Spd
kts
Gust
kts
Height
m
Period
s
Dir
31/11:30pm NNE 5 7 - - - - 10 - - 13.5 1023.1 0.0
31/11:00pm NNE 6 7 - - - - 10 - - 13.3 1023.2 0.0
31/10:30pm NE 4 5 - - - - 10 - - 13.5 1023.4 0.0
31/10:00pm CALM 0 3 - - - - 10 - - 14.3 1023.4 0.0
31/09:30pm CALM 0 3 - - - - 10 - - 15.9 1023.3 0.0
31/09:00pm CALM 0 0 - - - - 10 Cloudy Recent precip. 16.9 1023.2 0.0
31/08:30pm ESE 2 3 - - - - 10 Mostly clear - 17.1 1023.0 0.0
31/08:00pm SE 3 4 - - - - 10 Mostly clear - 17.1 1022.7 0.0
31/07:30pm SSE 3 3 - - - - 10 Partly cloudy - 17.1 1022.4 0.0
31/07:00pm SSW 3 4 - - - - 10 Mostly clear - 17.4 1022.2 0.0
31/06:30pm SW 4 5 - - - - 10 Partly cloudy - 17.4 1022.0 0.0
31/06:00pm SW 4 6 - - - - 10 Partly cloudy - 17.9 1021.8 0.0
31/05:30pm WSW 6 8 - - - - 10 Mostly clear - 19.0 1021.6 0.0
31/05:00pm WSW 7 9 - - - - 10 Mostly clear - 20.1 1021.2 0.0
31/04:30pm WSW 8 11 - - - - 10 Mostly clear - 20.7 1021.1 0.0
31/04:00pm W 9 13 - - - - 10 - - 20.7 1020.9 0.0
31/03:30pm WSW 9 12 - - - - 10 - - 20.9 1020.9 0.0
31/03:00pm W 9 12 - - - - 10 - - 21.4 1020.8 0.0
31/02:30pm WSW 8 12 - - - - 10 - - 21.2 1020.5 0.0
31/02:00pm WSW 9 13 - - - - 10 - - 21.1 1020.5 0.0
31/01:30pm WSW 7 10 - - - - 10 - - 21.3 1020.5 0.0
31/01:00pm W 9 11 - - - - 10 - - 21.2 1020.6 0.0
31/12:30pm W 8 11 - - - - 10 - - 20.8 1020.9 0.0
31/12:00pm W 9 12 - - - - 10 Mostly clear - 21.2 1021.0 0.0
31/11:30am NW 4 6 - - - - 10 - - 21.6 1021.0 0.0
31/11:00am WNW 6 9 - - - - 10 Mostly clear - 20.3 1021.3 0.0
31/10:30am WSW 6 9 - - - - 10 Partly cloudy - 19.2 1021.3 0.0
31/10:00am WNW 3 8 - - - - 10 Partly cloudy - 17.8 1021.4 0.0
31/09:30am NNE 4 6 - - - - 10 Partly cloudy - 18.0 1021.4 0.0
31/09:00am NNE 5 6 - - - - 10 Mostly clear - 16.4 1021.4 0.2
31/08:30am NNE 6 9 - - - - 10 - - 15.2 1021.0 0.2
31/08:00am NNE 7 9 - - - - 10 Mostly clear - 13.9 1020.9 0.2
31/07:30am NNE 8 10 - - - - 10 - - 13.0 1020.7 0.2
31/07:00am NNE 8 10 - - - - 10 Mostly clear - 12.3 1020.3 0.2
31/06:30am NNE 8 9 - - - - 10 Mostly clear - 12.1 1020.0 0.0
31/06:26am NNE 7 9 - - - - 10 Mostly clear - 12.0 1020.0 0.0
31/06:12am NNE 7 9 - - - - 1 Partly cloudy - 12.0 1019.8 0.0
31/06:00am NNE 8 9 - - - - 0.5 Cloudy - 11.9 1019.8 0.0
31/05:58am NNE 8 10 - - - - 0.9 Cloudy - 11.7 1019.8 0.0
31/05:46am NNE 8 9 - - - - 1 Cloudy - 11.5 1019.7 0.0
31/05:30am NNE 8 10 - - - - 0.6 Cloudy - 11.3 1019.6 0.0
31/05:17am NNE 8 10 - - - - 0.8 Partly cloudy - 11.1 1019.5 0.0
31/05:15am NNE 8 10 - - - - 1 Partly cloudy - 11.1 1019.5 0.0
31/05:00am NNE 8 10 - - - - 5 Mostly clear - 10.9 1019.6 0.0
31/04:30am NNE 7 8 - - - - 6 Mostly clear - 10.9 1019.5 0.0
31/04:29am NNE 7 8 - - - - 6 Mostly clear - 10.9 1019.5 0.0
31/04:00am NNE 8 10 - - - - 10 - - 11.0 1019.5 0.0
31/03:30am NNE 7 8 - - - - 10 - - 11.0 1019.5 0.0
31/03:00am NNE 7 9 - - - - 10 - - 11.0 1019.5 0.0
31/02:47am NNE 7 9 - - - - 10 Partly cloudy - 11.0 1019.5 0.0
31/02:41am NNE 7 9 - - - - 10 Partly cloudy - 11.0 1019.5 0.0
31/02:32am NNE 7 8 - - - - 1 Partly cloudy - 11.1 1019.5 0.0
31/02:30am NNE 7 8 - - - - 0.8 Partly cloudy - 11.2 1019.5 0.0
31/02:28am NNE 7 8 - - - - 0.8 Partly cloudy - 11.1 1019.5 0.0
31/02:26am NNE 7 8 - - - - 0.9 Partly cloudy - 11.1 1019.5 0.0
31/02:21am NNE 7 8 - - - - 5 Mostly clear - 11.1 1019.5 0.0
31/02:00am NNE 7 8 - - - - 10 - - 11.1 1019.6 0.0

Other formats

Comma delimited format used in spreadsheet applications
http://www.bom.gov.au/fwo/IDW60701/IDW60701.94403.axf

JavaScript Object Notation format (JSON) in row-major order
http://www.bom.gov.au/fwo/IDW60701/IDW60701.94403.json

Data quality

Most of these data are generated automatically and are frequently updated. Quality checks on data are not normally performed. It is possible for incorrect values to appear. Refer to information at About Latest Weather Observations and please check the disclaimer before using these data.